VJT85 KRIC-KMHT
Flight info
| Callsign | VJT85 |
|---|---|
| Flight time | N/A |
| Altitude | 41000 |
| Route | LUCYL6 LUCYL SHLBK T224 JFK T315 GDM MANCH |
| Aircraft | CL60/M-SADE3FGHIJ3J4J7P2RWXY/HB1D1 |
Departure
| Time | 2026-05-09 11:55 |
|---|---|
| Airport | Richmond International Airport (KRIC) |
Arrival
| Time | N/A |
|---|---|
| Airport | Manchester-Boston Regional Airport (KMHT) |
| Time | Latitude | Longitude | Altitude | Speed | Heading |
|---|---|---|---|---|---|
| 2026-05-09 11:41 | 37.51753 | -77.32818 | 167 ft | 0 kts | 341° |
| 2026-05-09 11:52 | 37.51759 | -77.32824 | 167 ft | 2 kts | 295° |
| 2026-05-09 11:52 | 37.51747 | -77.32856 | 167 ft | 5 kts | 227° |
| 2026-05-09 11:52 | 37.51704 | -77.32876 | 167 ft | 8 kts | 189° |
| 2026-05-09 11:52 | 37.51646 | -77.32860 | 167 ft | 9 kts | 135° |
| 2026-05-09 11:53 | 37.51640 | -77.32782 | 167 ft | 9 kts | 84° |
| 2026-05-09 11:53 | 37.51639 | -77.32685 | 167 ft | 12 kts | 92° |
| 2026-05-09 11:53 | 37.51640 | -77.32562 | 168 ft | 13 kts | 90° |
| 2026-05-09 11:53 | 37.51617 | -77.32471 | 168 ft | 11 kts | 146° |
| 2026-05-09 11:54 | 37.51562 | -77.32463 | 168 ft | 0 kts | 194° |
| 2026-05-09 11:54 | 37.51244 | -77.32558 | 167 ft | 101 kts | 194° |
| 2026-05-09 11:54 | 37.50294 | -77.32857 | 385 ft | 165 kts | 195° |
| 2026-05-09 11:55 | 37.49172 | -77.33238 | 1377 ft | 175 kts | 195° |
| 2026-05-09 11:56 | 37.47143 | -77.25744 | 4985 ft | 253 kts | 89° |
| 2026-05-09 11:56 | 37.47269 | -77.23407 | 4972 ft | 276 kts | 89° |
| 2026-05-09 11:56 | 37.47389 | -77.20909 | 5128 ft | 302 kts | 89° |
| 2026-05-09 11:57 | 37.47500 | -77.18245 | 6611 ft | 306 kts | 88° |
| 2026-05-09 11:57 | 37.47836 | -77.15694 | 8357 ft | 300 kts | 74° |
| 2026-05-09 11:57 | 37.48716 | -77.13358 | 9710 ft | 303 kts | 56° |
| 2026-05-09 11:57 | 37.49948 | -77.11165 | 10915 ft | 312 kts | 53° |
| 2026-05-09 11:58 | 37.51221 | -77.08926 | 12042 ft | 323 kts | 53° |
| 2026-05-09 11:58 | 37.52531 | -77.06614 | 13104 ft | 332 kts | 53° |
| 2026-05-09 11:58 | 37.53882 | -77.04228 | 14138 ft | 342 kts | 53° |
| 2026-05-09 11:58 | 37.55270 | -77.01771 | 15226 ft | 347 kts | 52° |
| 2026-05-09 11:59 | 37.56678 | -76.99279 | 16240 ft | 354 kts | 52° |
| 2026-05-09 11:59 | 37.58121 | -76.96720 | 17218 ft | 360 kts | 52° |
| 2026-05-09 11:59 | 37.59562 | -76.94162 | 18134 ft | 366 kts | 52° |
| 2026-05-09 11:59 | 37.61054 | -76.91512 | 19033 ft | 372 kts | 51° |
| 2026-05-09 12:00 | 37.62543 | -76.88864 | 19897 ft | 377 kts | 51° |
| 2026-05-09 12:00 | 37.64062 | -76.86159 | 20706 ft | 383 kts | 52° |
| 2026-05-09 12:00 | 37.65621 | -76.83382 | 21533 ft | 388 kts | 51° |
| 2026-05-09 12:00 | 37.67185 | -76.80590 | 22331 ft | 393 kts | 52° |
| 2026-05-09 12:01 | 37.68785 | -76.77734 | 23067 ft | 399 kts | 51° |
| 2026-05-09 12:01 | 37.70388 | -76.74894 | 23798 ft | 404 kts | 49° |
| 2026-05-09 12:01 | 37.72325 | -76.72393 | 24512 ft | 399 kts | 31° |
| 2026-05-09 12:01 | 37.74733 | -76.70690 | 25158 ft | 391 kts | 12° |
| 2026-05-09 12:02 | 37.77305 | -76.69948 | 25827 ft | 381 kts | 356° |
| 2026-05-09 12:02 | 37.79969 | -76.69745 | 26486 ft | 382 kts | 353° |
| 2026-05-09 12:02 | 37.82631 | -76.69570 | 27192 ft | 385 kts | 353° |
| 2026-05-09 12:02 | 37.85292 | -76.69392 | 27821 ft | 389 kts | 353° |
| 2026-05-09 12:03 | 37.87977 | -76.69209 | 28491 ft | 390 kts | 352° |
| 2026-05-09 12:03 | 37.90717 | -76.69024 | 29043 ft | 394 kts | 352° |
| 2026-05-09 12:03 | 37.93457 | -76.68839 | 29564 ft | 399 kts | 352° |
| 2026-05-09 12:03 | 37.96236 | -76.68649 | 30113 ft | 402 kts | 352° |
| 2026-05-09 12:04 | 37.99027 | -76.68458 | 30697 ft | 404 kts | 352° |
| 2026-05-09 12:04 | 38.01839 | -76.68265 | 31161 ft | 408 kts | 351° |
| 2026-05-09 12:04 | 38.04684 | -76.68070 | 31631 ft | 412 kts | 352° |
| 2026-05-09 12:04 | 38.07584 | -76.67579 | 32040 ft | 430 kts | 1° |
| 2026-05-09 12:05 | 38.10495 | -76.66432 | 32459 ft | 447 kts | 11° |
| 2026-05-09 12:05 | 38.13206 | -76.64722 | 32789 ft | 464 kts | 21° |
| 2026-05-09 12:05 | 38.15883 | -76.62328 | 33148 ft | 479 kts | 30° |
| 2026-05-09 12:05 | 38.18536 | -76.59581 | 33509 ft | 483 kts | 30° |
| 2026-05-09 12:06 | 38.21127 | -76.56898 | 33874 ft | 486 kts | 30° |
| 2026-05-09 12:06 | 38.23786 | -76.54160 | 34250 ft | 487 kts | 30° |
| 2026-05-09 12:06 | 38.26397 | -76.51485 | 34650 ft | 486 kts | 29° |
| 2026-05-09 12:06 | 38.29024 | -76.48801 | 35116 ft | 483 kts | 29° |
| 2026-05-09 12:07 | 38.31631 | -76.46146 | 35586 ft | 479 kts | 29° |
| 2026-05-09 12:07 | 38.34219 | -76.43440 | 35956 ft | 483 kts | 33° |
| 2026-05-09 12:07 | 38.36672 | -76.40488 | 36387 ft | 485 kts | 35° |
| 2026-05-09 12:07 | 38.39077 | -76.37540 | 36801 ft | 485 kts | 35° |
| 2026-05-09 12:08 | 38.41527 | -76.34545 | 37224 ft | 484 kts | 36° |
| 2026-05-09 12:08 | 38.43932 | -76.31607 | 37555 ft | 483 kts | 36° |
| 2026-05-09 12:08 | 38.46379 | -76.28619 | 37865 ft | 483 kts | 35° |
| 2026-05-09 12:08 | 38.48791 | -76.25674 | 38140 ft | 482 kts | 36° |
| 2026-05-09 12:09 | 38.51208 | -76.22725 | 38371 ft | 483 kts | 36° |
| 2026-05-09 12:09 | 38.53637 | -76.19761 | 38649 ft | 483 kts | 36° |
| 2026-05-09 12:09 | 38.56055 | -76.16808 | 38914 ft | 482 kts | 36° |
| 2026-05-09 12:10 | 38.63656 | -76.07729 | 39609 ft | 475 kts | 29° |
| 2026-05-09 12:10 | 38.66403 | -76.05119 | 39921 ft | 468 kts | 27° |
| 2026-05-09 12:10 | 38.69128 | -76.02580 | 40137 ft | 468 kts | 27° |
| 2026-05-09 12:11 | 38.71762 | -76.00124 | 40304 ft | 468 kts | 27° |
| 2026-05-09 12:11 | 38.74423 | -75.97638 | 40451 ft | 468 kts | 27° |
| 2026-05-09 12:11 | 38.77052 | -75.95180 | 40600 ft | 468 kts | 27° |
| 2026-05-09 12:11 | 38.79704 | -75.92696 | 40806 ft | 466 kts | 27° |
| 2026-05-09 12:12 | 38.82339 | -75.90223 | 40959 ft | 465 kts | 27° |
| 2026-05-09 12:12 | 38.87592 | -75.85297 | 40964 ft | 473 kts | 28° |
| 2026-05-09 12:13 | 38.92979 | -75.80248 | 40960 ft | 479 kts | 28° |
| 2026-05-09 12:13 | 38.98417 | -75.75124 | 40952 ft | 486 kts | 28° |
| 2026-05-09 12:14 | 39.04037 | -75.69804 | 40944 ft | 491 kts | 28° |
| 2026-05-09 12:14 | 39.09604 | -75.64528 | 40952 ft | 496 kts | 28° |
| 2026-05-09 12:15 | 39.15187 | -75.59229 | 40943 ft | 501 kts | 28° |
| 2026-05-09 12:15 | 39.20827 | -75.53760 | 40962 ft | 508 kts | 33° |
| 2026-05-09 12:16 | 39.25732 | -75.47043 | 40964 ft | 523 kts | 48° |
| 2026-05-09 12:16 | 39.30054 | -75.39359 | 40961 ft | 527 kts | 49° |
| 2026-05-09 12:17 | 39.34349 | -75.31689 | 40944 ft | 528 kts | 50° |
| 2026-05-09 12:17 | 39.38644 | -75.23999 | 40948 ft | 529 kts | 49° |
| 2026-05-09 12:18 | 39.43019 | -75.16146 | 40942 ft | 530 kts | 50° |
| 2026-05-09 12:18 | 39.47376 | -75.08306 | 40957 ft | 532 kts | 50° |
| 2026-05-09 12:19 | 39.51723 | -75.00467 | 40954 ft | 533 kts | 50° |
| 2026-05-09 12:19 | 39.56016 | -74.92545 | 40944 ft | 537 kts | 51° |
| 2026-05-09 12:20 | 39.60263 | -74.84448 | 40947 ft | 539 kts | 51° |
| 2026-05-09 12:20 | 39.64463 | -74.76427 | 40944 ft | 542 kts | 51° |
| 2026-05-09 12:21 | 39.68672 | -74.68368 | 40959 ft | 545 kts | 51° |
| 2026-05-09 12:21 | 39.72929 | -74.60201 | 40944 ft | 548 kts | 51° |
| 2026-05-09 12:22 | 39.77233 | -74.51920 | 40947 ft | 550 kts | 51° |
| 2026-05-09 12:22 | 39.81809 | -74.44154 | 40960 ft | 541 kts | 41° |
| 2026-05-09 12:23 | 39.87354 | -74.37822 | 40952 ft | 530 kts | 29° |
| 2026-05-09 12:23 | 39.93316 | -74.32157 | 40954 ft | 528 kts | 29° |
| 2026-05-09 12:24 | 39.99199 | -74.26554 | 40953 ft | 528 kts | 30° |
| 2026-05-09 12:24 | 40.05171 | -74.20933 | 40951 ft | 528 kts | 28° |
| 2026-05-09 12:25 | 40.11182 | -74.15505 | 40956 ft | 522 kts | 23° |
| 2026-05-09 12:25 | 40.17480 | -74.10841 | 40952 ft | 522 kts | 22° |
| 2026-05-09 12:26 | 40.23796 | -74.06167 | 40958 ft | 521 kts | 22° |
| 2026-05-09 12:26 | 40.30085 | -74.01578 | 40956 ft | 521 kts | 21° |
| 2026-05-09 12:27 | 40.36418 | -73.96945 | 40955 ft | 521 kts | 22° |
| 2026-05-09 12:27 | 40.42703 | -73.92337 | 40967 ft | 520 kts | 21° |
| 2026-05-09 12:28 | 40.49007 | -73.87704 | 40959 ft | 519 kts | 22° |
| 2026-05-09 12:28 | 40.55315 | -73.83058 | 40955 ft | 520 kts | 22° |
| 2026-05-09 12:29 | 40.61632 | -73.78367 | 40965 ft | 522 kts | 24° |
| 2026-05-09 12:29 | 40.67509 | -73.72518 | 40958 ft | 532 kts | 33° |
| 2026-05-09 12:30 | 40.73267 | -73.66132 | 40973 ft | 533 kts | 35° |
| 2026-05-09 12:30 | 40.80548 | -73.54778 | 40975 ft | 546 kts | 56° |
| 2026-05-09 12:31 | 40.87101 | -73.42573 | 40974 ft | 536 kts | 40° |
| 2026-05-09 12:32 | 40.92690 | -73.36266 | 40968 ft | 525 kts | 27° |
| 2026-05-09 12:32 | 40.99009 | -73.31617 | 40972 ft | 511 kts | 15° |
| 2026-05-09 12:33 | 41.05733 | -73.28732 | 40982 ft | 497 kts | 4° |
| 2026-05-09 12:33 | 41.12502 | -73.27118 | 40968 ft | 494 kts | 1° |
| 2026-05-09 12:34 | 41.19357 | -73.25545 | 40977 ft | 494 kts | 1° |
| 2026-05-09 12:34 | 41.26120 | -73.23991 | 40989 ft | 495 kts | 1° |
| 2026-05-09 12:35 | 41.32972 | -73.22410 | 40967 ft | 496 kts | 1° |
| 2026-05-09 12:35 | 41.39778 | -73.20831 | 40969 ft | 489 kts | 1° |
| 2026-05-09 12:36 | 41.46503 | -73.19265 | 40902 ft | 479 kts | 1° |
| 2026-05-09 12:36 | 41.52409 | -73.17886 | 40816 ft | 471 kts | 1° |
| 2026-05-09 12:37 | 41.56887 | -73.16846 | 40680 ft | 467 kts | 1° |
| 2026-05-09 12:37 | 41.57272 | -73.16756 | 40661 ft | 467 kts | 1° |